2000 MARCIA (2000046S14100)


On this page: IBTrACS data - Map and Plots - Positions - Intensities - Original source data

Summary

Start Feb 14
End Feb 18
Basin SI
LMI 45 kt
Sources bom
neumann
In WMO? Yes
Previous storm 2000 ELINE (SI)
Previous in basin 2000 ELINE (SI)
Concurrent storms 2000 ELINE (SI)
2000 MARCIA (SI)
Next in basin 2000 FELICIA (SI)
Next storm 2000 FELICIA (SI)

top of page IBTrACS Data: File Access

top of page HURSAT Data: File Access

Image of storm

top of page Plots:

Map of storm track will not appear if FTP is down
Time series of cyclone Maximum Sustained Wind will not appear if FTP is down
Time series of cyclone Minimum Central Pressure will not appear if FTP is down

top of page Track Data:Position

bom neumann
Date Lat Lon Lat Lon
2000-02-14 12:00:00 -13.8 100.3
2000-02-14 18:00:00 -13.7 101.8
2000-02-15 00:00:00 -13.7 102.7
2000-02-15 06:00:00 -14.1 102.8 -14.2 101.8
2000-02-15 12:00:00 -14.6 102.6 -14.2 102.7
2000-02-15 18:00:00 -14.8 102.5 -14.8 103.0
2000-02-16 00:00:00 -14.8 102.4 -15.1 102.5
2000-02-16 06:00:00 -14.9 102.4 -15.0 102.3
2000-02-16 12:00:00 -15.2 102.7 -15.1 102.8
2000-02-16 18:00:00 -15.7 103.1 -15.4 103.3
2000-02-17 00:00:00 -16.1 103.5 -15.9 103.4
2000-02-17 06:00:00 -16.2 103.9 -16.4 103.7
2000-02-17 12:00:00 -16.3 104.3 -16.5 104.0
2000-02-17 18:00:00 -16.3 104.3 -16.5 104.2
2000-02-18 00:00:00 -16.3 104.4
2000-02-18 06:00:00 -16.3 104.4
2000-02-18 12:00:00 -16.6 104.1

top of pageTrack Data:Intensity

bom neumann
Date Wind Pres Wind Pres
2000-02-14 12:00:00 27. 1000.
2000-02-14 18:00:00 27. 1000.
2000-02-15 00:00:00 27. 1000.
2000-02-15 06:00:00 27. 1000. 30. 1000.
2000-02-15 12:00:00 27. 1000. 30. 999.
2000-02-15 18:00:00 35. 995. 30. 999.
2000-02-16 00:00:00 35. 995. 35. 997.
2000-02-16 06:00:00 35. 995. 40. 993.
2000-02-16 12:00:00 35. 995. 45. 992.
2000-02-16 18:00:00 35. 995. 35. 996.
2000-02-17 00:00:00 35. 995. 35. 998.
2000-02-17 06:00:00 35. 995. 30. 1000.
2000-02-17 12:00:00 27. 1000. 25. 1002.
2000-02-17 18:00:00 27. 1000. 25. 1003.
2000-02-18 00:00:00 27. 1000.
2000-02-18 06:00:00 27. 1000.
2000-02-18 12:00:00 27. 1000.

top of page Links to source data

Source Source file Format
bom IDCKMSTM0S.csv:Line=21663:MARCIA CSV file (from Excel file)
neumann tracks.sh:Storm=1186:MARCIA:BSH992000:Perth HURDAT